sensor_id;sensor_type;location;lat;lon;timestamp;temperature;humidity
72591;SHT31;60625;51.212;5.952;2022-09-03T00:01:49;17.71;51.21
72591;SHT31;60625;51.212;5.952;2022-09-03T00:07:02;17.58;51.24
72591;SHT31;60625;51.212;5.952;2022-09-03T00:12:21;17.44;51.66
72591;SHT31;60625;51.212;5.952;2022-09-03T00:17:35;17.31;51.44
72591;SHT31;60625;51.212;5.952;2022-09-03T00:22:42;17.27;51.39
72591;SHT31;60625;51.212;5.952;2022-09-03T00:27:48;17.22;51.31
72591;SHT31;60625;51.212;5.952;2022-09-03T00:32:55;17.18;51.17
72591;SHT31;60625;51.212;5.952;2022-09-03T00:38:06;17.17;50.97
72591;SHT31;60625;51.212;5.952;2022-09-03T00:48:47;17.14;50.87
72591;SHT31;60625;51.212;5.952;2022-09-03T01:10:29;16.61;52.23
72591;SHT31;60625;51.212;5.952;2022-09-03T01:21:27;16.66;51.70
72591;SHT31;60625;51.212;5.952;2022-09-03T01:37:46;16.59;52.01
72591;SHT31;60625;51.212;5.952;2022-09-03T01:43:32;16.62;51.94
72591;SHT31;60625;51.212;5.952;2022-09-03T01:48:56;16.60;51.94
72591;SHT31;60625;51.212;5.952;2022-09-03T02:00:09;16.48;52.19
72591;SHT31;60625;51.212;5.952;2022-09-03T02:05:22;16.45;52.32
72591;SHT31;60625;51.212;5.952;2022-09-03T02:15:42;16.39;52.31
72591;SHT31;60625;51.212;5.952;2022-09-03T02:20:45;16.43;52.01
72591;SHT31;60625;51.212;5.952;2022-09-03T02:25:49;16.44;52.21
72591;SHT31;60625;51.212;5.952;2022-09-03T02:30:55;16.42;52.17
72591;SHT31;60625;51.212;5.952;2022-09-03T02:35:56;16.40;52.36
72591;SHT31;60625;51.212;5.952;2022-09-03T02:40:56;16.37;52.24
72591;SHT31;60625;51.212;5.952;2022-09-03T02:46:00;16.39;52.24
72591;SHT31;60625;51.212;5.952;2022-09-03T02:51:05;16.36;52.38
72591;SHT31;60625;51.212;5.952;2022-09-03T02:56:05;16.35;52.20
72591;SHT31;60625;51.212;5.952;2022-09-03T03:01:06;16.32;52.46
72591;SHT31;60625;51.212;5.952;2022-09-03T03:06:06;16.29;52.38
72591;SHT31;60625;51.212;5.952;2022-09-03T03:11:07;16.24;52.87
72591;SHT31;60625;51.212;5.952;2022-09-03T03:16:08;16.19;52.96
72591;SHT31;60625;51.212;5.952;2022-09-03T03:21:10;16.13;53.36
72591;SHT31;60625;51.212;5.952;2022-09-03T03:26:15;16.15;53.21
72591;SHT31;60625;51.212;5.952;2022-09-03T03:31:19;16.22;52.80
72591;SHT31;60625;51.212;5.952;2022-09-03T03:36:21;16.27;52.87
72591;SHT31;60625;51.212;5.952;2022-09-03T03:41:26;16.28;52.68
72591;SHT31;60625;51.212;5.952;2022-09-03T03:46:36;16.34;52.47
72591;SHT31;60625;51.212;5.952;2022-09-03T03:51:39;16.43;52.16
72591;SHT31;60625;51.212;5.952;2022-09-03T03:56:39;16.52;51.99
72591;SHT31;60625;51.212;5.952;2022-09-03T04:01:40;16.57;51.79
72591;SHT31;60625;51.212;5.952;2022-09-03T04:06:40;16.61;51.83
72591;SHT31;60625;51.212;5.952;2022-09-03T04:11:41;16.62;51.78
72591;SHT31;60625;51.212;5.952;2022-09-03T04:16:41;16.62;51.87
72591;SHT31;60625;51.212;5.952;2022-09-03T04:21:42;16.61;52.06
72591;SHT31;60625;51.212;5.952;2022-09-03T04:26:43;16.58;52.19
72591;SHT31;60625;51.212;5.952;2022-09-03T04:31:43;16.61;52.24
72591;SHT31;60625;51.212;5.952;2022-09-03T04:37:04;16.57;52.78
72591;SHT31;60625;51.212;5.952;2022-09-03T04:42:04;16.46;53.12
72591;SHT31;60625;51.212;5.952;2022-09-03T04:47:05;16.40;53.46
72591;SHT31;60625;51.212;5.952;2022-09-03T04:52:05;16.33;53.83
72591;SHT31;60625;51.212;5.952;2022-09-03T04:57:06;16.29;53.95
72591;SHT31;60625;51.212;5.952;2022-09-03T05:02:07;16.26;53.97
72591;SHT31;60625;51.212;5.952;2022-09-03T05:07:09;16.28;53.76
72591;SHT31;60625;51.212;5.952;2022-09-03T05:12:10;16.30;54.09
72591;SHT31;60625;51.212;5.952;2022-09-03T05:17:12;16.31;54.33
72591;SHT31;60625;51.212;5.952;2022-09-03T05:22:12;16.34;54.55
72591;SHT31;60625;51.212;5.952;2022-09-03T05:27:15;16.38;54.97
72591;SHT31;60625;51.212;5.952;2022-09-03T05:32:16;16.47;55.33
72591;SHT31;60625;51.212;5.952;2022-09-03T05:37:17;16.56;55.17
72591;SHT31;60625;51.212;5.952;2022-09-03T05:42:17;16.70;54.35
72591;SHT31;60625;51.212;5.952;2022-09-03T05:47:19;16.86;53.20
72591;SHT31;60625;51.212;5.952;2022-09-03T05:52:19;17.07;52.60
72591;SHT31;60625;51.212;5.952;2022-09-03T05:57:22;17.32;51.78
72591;SHT31;60625;51.212;5.952;2022-09-03T06:02:24;17.93;50.94
72591;SHT31;60625;51.212;5.952;2022-09-03T06:07:25;18.16;50.19
72591;SHT31;60625;51.212;5.952;2022-09-03T06:12:26;18.21;49.95
72591;SHT31;60625;51.212;5.952;2022-09-03T06:17:26;18.31;49.74
72591;SHT31;60625;51.212;5.952;2022-09-03T06:22:27;18.44;49.63
72591;SHT31;60625;51.212;5.952;2022-09-03T06:27:29;18.58;49.17
72591;SHT31;60625;51.212;5.952;2022-09-03T06:32:29;18.71;48.94
72591;SHT31;60625;51.212;5.952;2022-09-03T06:37:30;18.85;48.39
72591;SHT31;60625;51.212;5.952;2022-09-03T06:42:30;19.02;48.05
72591;SHT31;60625;51.212;5.952;2022-09-03T06:47:31;19.27;47.73
72591;SHT31;60625;51.212;5.952;2022-09-03T06:52:32;19.39;47.24
72591;SHT31;60625;51.212;5.952;2022-09-03T06:57:33;19.48;47.26
72591;SHT31;60625;51.212;5.952;2022-09-03T07:02:33;19.58;46.99
72591;SHT31;60625;51.212;5.952;2022-09-03T07:07:34;19.66;46.85
72591;SHT31;60625;51.212;5.952;2022-09-03T07:12:34;19.79;46.85
72591;SHT31;60625;51.212;5.952;2022-09-03T07:17:36;19.87;46.55
72591;SHT31;60625;51.212;5.952;2022-09-03T07:22:37;20.00;46.21
72591;SHT31;60625;51.212;5.952;2022-09-03T07:27:37;20.20;45.78
72591;SHT31;60625;51.212;5.952;2022-09-03T07:32:39;20.52;45.45
72591;SHT31;60625;51.212;5.952;2022-09-03T07:37:40;20.87;44.79
72591;SHT31;60625;51.212;5.952;2022-09-03T07:42:42;21.08;44.26
72591;SHT31;60625;51.212;5.952;2022-09-03T07:47:47;21.23;44.53
72591;SHT31;60625;51.212;5.952;2022-09-03T07:52:54;21.33;44.17
72591;SHT31;60625;51.212;5.952;2022-09-03T07:57:57;21.49;44.17
72591;SHT31;60625;51.212;5.952;2022-09-03T08:02:58;21.60;43.71
72591;SHT31;60625;51.212;5.952;2022-09-03T08:08:05;21.68;43.31
72591;SHT31;60625;51.212;5.952;2022-09-03T08:13:05;21.74;42.92
72591;SHT31;60625;51.212;5.952;2022-09-03T08:18:06;21.72;43.13
72591;SHT31;60625;51.212;5.952;2022-09-03T08:23:09;21.89;43.31
72591;SHT31;60625;51.212;5.952;2022-09-03T08:28:09;21.99;42.94
72591;SHT31;60625;51.212;5.952;2022-09-03T08:33:10;22.05;43.15
72591;SHT31;60625;51.212;5.952;2022-09-03T08:38:10;22.21;43.01
72591;SHT31;60625;51.212;5.952;2022-09-03T08:43:14;22.37;42.90
72591;SHT31;60625;51.212;5.952;2022-09-03T08:48:20;22.46;42.78
72591;SHT31;60625;51.212;5.952;2022-09-03T08:53:26;22.72;42.54
72591;SHT31;60625;51.212;5.952;2022-09-03T08:58:43;23.08;41.80
72591;SHT31;60625;51.212;5.952;2022-09-03T09:25:52;24.69;39.33
72591;SHT31;60625;51.212;5.952;2022-09-03T09:30:56;25.08;38.76
72591;SHT31;60625;51.212;5.952;2022-09-03T09:36:00;25.40;38.29
72591;SHT31;60625;51.212;5.952;2022-09-03T09:41:08;25.59;37.83
72591;SHT31;60625;51.212;5.952;2022-09-03T09:46:22;25.73;37.39
72591;SHT31;60625;51.212;5.952;2022-09-03T09:51:30;25.76;37.09
72591;SHT31;60625;51.212;5.952;2022-09-03T09:56:31;25.79;37.30
72591;SHT31;60625;51.212;5.952;2022-09-03T10:01:32;25.69;37.45
72591;SHT31;60625;51.212;5.952;2022-09-03T10:06:33;25.75;37.97
72591;SHT31;60625;51.212;5.952;2022-09-03T10:12:04;26.07;37.60
72591;SHT31;60625;51.212;5.952;2022-09-03T10:17:23;26.19;37.19
72591;SHT31;60625;51.212;5.952;2022-09-03T10:22:30;26.16;37.62
72591;SHT31;60625;51.212;5.952;2022-09-03T10:27:42;26.45;37.67
72591;SHT31;60625;51.212;5.952;2022-09-03T10:32:55;26.74;37.04
72591;SHT31;60625;51.212;5.952;2022-09-03T10:38:17;27.06;37.06
72591;SHT31;60625;51.212;5.952;2022-09-03T10:44:17;27.08;36.40
72591;SHT31;60625;51.212;5.952;2022-09-03T10:55:07;27.50;36.44
72591;SHT31;60625;51.212;5.952;2022-09-03T11:00:45;27.59;36.56
72591;SHT31;60625;51.212;5.952;2022-09-03T11:11:32;27.73;36.50
72591;SHT31;60625;51.212;5.952;2022-09-03T11:21:45;28.18;35.79
72591;SHT31;60625;51.212;5.952;2022-09-03T11:26:49;28.04;35.83
72591;SHT31;60625;51.212;5.952;2022-09-03T11:32:01;27.98;36.22
72591;SHT31;60625;51.212;5.952;2022-09-03T11:42:12;28.66;35.15
72591;SHT31;60625;51.212;5.952;2022-09-03T11:47:38;28.47;34.85
72591;SHT31;60625;51.212;5.952;2022-09-03T11:52:42;28.46;34.84
72591;SHT31;60625;51.212;5.952;2022-09-03T11:57:42;28.53;34.94
72591;SHT31;60625;51.212;5.952;2022-09-03T12:02:47;28.56;34.85
72591;SHT31;60625;51.212;5.952;2022-09-03T12:14:22;28.98;34.85
72591;SHT31;60625;51.212;5.952;2022-09-03T12:19:36;29.48;34.33
72591;SHT31;60625;51.212;5.952;2022-09-03T12:24:46;29.43;33.97
72591;SHT31;60625;51.212;5.952;2022-09-03T12:29:59;29.42;34.29
72591;SHT31;60625;51.212;5.952;2022-09-03T12:35:14;29.76;33.96
72591;SHT31;60625;51.212;5.952;2022-09-03T12:40:22;29.79;33.89
72591;SHT31;60625;51.212;5.952;2022-09-03T12:45:26;29.94;33.48
72591;SHT31;60625;51.212;5.952;2022-09-03T12:50:27;29.94;33.06
72591;SHT31;60625;51.212;5.952;2022-09-03T12:55:31;29.61;33.44
72591;SHT31;60625;51.212;5.952;2022-09-03T13:00:44;29.88;33.62
72591;SHT31;60625;51.212;5.952;2022-09-03T13:05:55;29.88;33.40
72591;SHT31;60625;51.212;5.952;2022-09-03T13:11:03;30.17;33.44
72591;SHT31;60625;51.212;5.952;2022-09-03T13:21:17;30.41;33.51
72591;SHT31;60625;51.212;5.952;2022-09-03T13:26:35;30.66;33.04
72591;SHT31;60625;51.212;5.952;2022-09-03T13:31:52;30.74;32.88
72591;SHT31;60625;51.212;5.952;2022-09-03T13:37:21;30.82;32.74
72591;SHT31;60625;51.212;5.952;2022-09-03T13:42:38;30.50;33.01
72591;SHT31;60625;51.212;5.952;2022-09-03T13:58:52;30.70;32.62
72591;SHT31;60625;51.212;5.952;2022-09-03T14:04:16;30.35;33.23
72591;SHT31;60625;51.212;5.952;2022-09-03T14:20:03;30.84;32.74
72591;SHT31;60625;51.212;5.952;2022-09-03T14:25:16;30.83;32.89
72591;SHT31;60625;51.212;5.952;2022-09-03T14:30:32;30.55;33.35
72591;SHT31;60625;51.212;5.952;2022-09-03T14:51:41;29.56;34.59
72591;SHT31;60625;51.212;5.952;2022-09-03T15:02:40;29.02;35.43
72591;SHT31;60625;51.212;5.952;2022-09-03T15:08:07;28.87;35.97
72591;SHT31;60625;51.212;5.952;2022-09-03T15:13:26;28.79;36.15
72591;SHT31;60625;51.212;5.952;2022-09-03T15:25:30;28.28;37.20
72591;SHT31;60625;51.212;5.952;2022-09-03T15:30:22;28.06;37.85
72591;SHT31;60625;51.212;5.952;2022-09-03T15:40:51;27.75;38.63
72591;SHT31;60625;51.212;5.952;2022-09-03T15:45:58;27.60;38.67
72591;SHT31;60625;51.212;5.952;2022-09-03T15:51:15;27.52;38.99
72591;SHT31;60625;51.212;5.952;2022-09-03T15:56:39;27.46;39.22
72591;SHT31;60625;51.212;5.952;2022-09-03T16:07:26;27.34;39.97
72591;SHT31;60625;51.212;5.952;2022-09-03T16:24:21;27.90;39.35
72591;SHT31;60625;51.212;5.952;2022-09-03T16:29:41;28.09;38.81
72591;SHT31;60625;51.212;5.952;2022-09-03T16:35:11;28.11;38.77
72591;SHT31;60625;51.212;5.952;2022-09-03T16:40:50;28.26;38.34
72591;SHT31;60625;51.212;5.952;2022-09-03T16:51:48;28.33;38.48
72591;SHT31;60625;51.212;5.952;2022-09-03T17:19:55;27.25;41.05
72591;SHT31;60625;51.212;5.952;2022-09-03T17:24:51;27.05;41.63
72591;SHT31;60625;51.212;5.952;2022-09-03T17:35:46;26.56;42.42
72591;SHT31;60625;51.212;5.952;2022-09-03T17:41:24;26.42;42.77
72591;SHT31;60625;51.212;5.952;2022-09-03T17:58:12;26.13;43.47
72591;SHT31;60625;51.212;5.952;2022-09-03T18:03:21;26.10;43.77
72591;SHT31;60625;51.212;5.952;2022-09-03T18:08:42;26.04;44.34
72591;SHT31;60625;51.212;5.952;2022-09-03T18:14:16;25.92;45.05
72591;SHT31;60625;51.212;5.952;2022-09-03T18:19:29;25.75;45.75
72591;SHT31;60625;51.212;5.952;2022-09-03T18:24:56;25.57;46.27
72591;SHT31;60625;51.212;5.952;2022-09-03T18:30:17;25.45;46.44
72591;SHT31;60625;51.212;5.952;2022-09-03T18:35:37;25.36;46.82
72591;SHT31;60625;51.212;5.952;2022-09-03T18:46:45;25.17;47.85
72591;SHT31;60625;51.212;5.952;2022-09-03T18:52:22;25.04;48.38
72591;SHT31;60625;51.212;5.952;2022-09-03T18:58:19;24.79;49.10
72591;SHT31;60625;51.212;5.952;2022-09-03T19:03:57;24.60;49.94
72591;SHT31;60625;51.212;5.952;2022-09-03T19:09:44;24.31;50.97
72591;SHT31;60625;51.212;5.952;2022-09-03T19:15:44;23.93;52.26
72591;SHT31;60625;51.212;5.952;2022-09-03T19:27:16;23.31;53.98
72591;SHT31;60625;51.212;5.952;2022-09-03T19:33:09;23.15;54.79
72591;SHT31;60625;51.212;5.952;2022-09-03T19:38:41;22.94;54.81
72591;SHT31;60625;51.212;5.952;2022-09-03T19:50:13;22.83;55.28
72591;SHT31;60625;51.212;5.952;2022-09-03T19:55:41;22.59;56.42
72591;SHT31;60625;51.212;5.952;2022-09-03T20:01:10;22.40;56.78
72591;SHT31;60625;51.212;5.952;2022-09-03T20:06:32;22.33;56.88
72591;SHT31;60625;51.212;5.952;2022-09-03T20:11:55;22.17;57.56
72591;SHT31;60625;51.212;5.952;2022-09-03T20:28:10;21.80;58.28
72591;SHT31;60625;51.212;5.952;2022-09-03T20:33:50;21.78;58.56
72591;SHT31;60625;51.212;5.952;2022-09-03T20:55:46;21.90;60.06
72591;SHT31;60625;51.212;5.952;2022-09-03T21:12:50;21.75;60.60
72591;SHT31;60625;51.212;5.952;2022-09-03T21:18:09;21.57;60.97
72591;SHT31;60625;51.212;5.952;2022-09-03T21:23:44;21.41;61.13
72591;SHT31;60625;51.212;5.952;2022-09-03T21:29:03;21.30;61.50
72591;SHT31;60625;51.212;5.952;2022-09-03T21:34:19;21.29;61.77
72591;SHT31;60625;51.212;5.952;2022-09-03T21:44:59;21.34;62.04
72591;SHT31;60625;51.212;5.952;2022-09-03T21:50:16;21.19;62.38
72591;SHT31;60625;51.212;5.952;2022-09-03T21:55:20;21.03;62.88
72591;SHT31;60625;51.212;5.952;2022-09-03T22:00:44;20.94;63.30
72591;SHT31;60625;51.212;5.952;2022-09-03T22:05:48;20.84;63.70
72591;SHT31;60625;51.212;5.952;2022-09-03T22:26:56;20.89;64.46
72591;SHT31;60625;51.212;5.952;2022-09-03T22:54:27;20.55;65.46
72591;SHT31;60625;51.212;5.952;2022-09-03T22:59:36;20.45;65.66
72591;SHT31;60625;51.212;5.952;2022-09-03T23:10:09;19.87;65.96
72591;SHT31;60625;51.212;5.952;2022-09-03T23:15:21;19.63;67.11
72591;SHT31;60625;51.212;5.952;2022-09-03T23:20:28;19.60;67.54
72591;SHT31;60625;51.212;5.952;2022-09-03T23:25:33;19.80;67.17
72591;SHT31;60625;51.212;5.952;2022-09-03T23:30:41;19.82;66.99
72591;SHT31;60625;51.212;5.952;2022-09-03T23:36:01;19.64;67.79
72591;SHT31;60625;51.212;5.952;2022-09-03T23:41:19;19.48;67.81
72591;SHT31;60625;51.212;5.952;2022-09-03T23:46:47;19.54;68.01
72591;SHT31;60625;51.212;5.952;2022-09-03T23:57:40;19.25;67.86
